createdAt,value
2017-09-23T00:02:05.287Z,9.07
2017-09-23T00:04:33.735Z,9.08
2017-09-23T00:07:02.162Z,9.04
2017-09-23T00:09:30.595Z,9.00
2017-09-23T00:11:59.015Z,8.96
2017-09-23T00:14:27.522Z,8.95
2017-09-23T00:16:55.974Z,9.01
2017-09-23T00:19:24.440Z,9.00
2017-09-23T00:21:53.663Z,8.95
2017-09-23T00:24:22.082Z,8.90
2017-09-23T00:26:50.515Z,8.88
2017-09-23T00:29:18.938Z,8.86
2017-09-23T00:31:47.483Z,8.82
2017-09-23T00:34:15.971Z,8.83
2017-09-23T00:36:44.451Z,8.84
2017-09-23T00:39:12.875Z,8.77
2017-09-23T00:41:41.320Z,8.69
2017-09-23T00:44:09.790Z,8.59
2017-09-23T00:46:38.231Z,8.60
2017-09-23T00:49:06.659Z,8.51
2017-09-23T00:51:35.106Z,8.47
2017-09-23T00:54:04.299Z,8.46
2017-09-23T00:56:32.755Z,8.45
2017-09-23T00:59:01.191Z,8.44
2017-09-23T01:01:29.631Z,8.48
2017-09-23T01:03:59.569Z,8.45
2017-09-23T01:06:28.785Z,8.42
2017-09-23T01:08:57.986Z,8.37
2017-09-23T01:11:26.484Z,8.36
2017-09-23T01:13:54.915Z,8.38
2017-09-23T01:16:23.370Z,8.34
2017-09-23T01:18:51.800Z,8.24
2017-09-23T01:21:20.988Z,8.25
2017-09-23T01:23:50.191Z,8.27
2017-09-23T01:26:20.443Z,8.25
2017-09-23T01:28:48.882Z,8.24
2017-09-23T01:31:17.304Z,8.28
2017-09-23T01:33:45.783Z,8.25
2017-09-23T01:36:14.208Z,8.20
2017-09-23T01:38:43.427Z,8.20
2017-09-23T01:41:11.947Z,8.18
2017-09-23T01:43:40.386Z,8.13
2017-09-23T01:46:08.811Z,7.99
2017-09-23T01:48:37.297Z,8.05
2017-09-23T01:51:05.723Z,8.06
2017-09-23T01:53:34.943Z,8.03
2017-09-23T01:56:04.171Z,8.08
2017-09-23T01:58:32.623Z,8.08
2017-09-23T02:01:01.816Z,8.10
2017-09-23T02:03:30.272Z,8.14
2017-09-23T02:05:58.699Z,8.18
2017-09-23T02:08:27.902Z,7.93
2017-09-23T02:10:56.329Z,7.93
2017-09-23T02:13:24.875Z,7.91
2017-09-23T02:15:53.298Z,7.93
2017-09-23T02:18:21.723Z,7.95
2017-09-23T02:20:50.940Z,7.94
2017-09-23T02:23:19.372Z,8.02
2017-09-23T02:25:48.587Z,8.02
2017-09-23T02:28:17.788Z,8.02
2017-09-23T02:30:47.006Z,7.92
2017-09-23T02:33:15.430Z,7.89
2017-09-23T02:35:43.868Z,8.03
2017-09-23T02:38:12.359Z,8.08
2017-09-23T02:40:40.844Z,8.08
2017-09-23T02:43:09.333Z,8.10
2017-09-23T02:45:37.784Z,8.16
2017-09-23T02:48:06.982Z,8.22
2017-09-23T02:50:36.307Z,8.23
2017-09-23T02:53:04.794Z,8.21
2017-09-23T02:55:33.248Z,8.16
2017-09-23T02:58:02.448Z,8.29
2017-09-23T03:00:31.767Z,8.29
2017-09-23T03:03:00.260Z,8.27
2017-09-23T03:05:28.741Z,8.25
2017-09-23T03:07:57.168Z,8.21
2017-09-23T03:10:27.240Z,8.18
2017-09-23T03:12:55.667Z,8.25
2017-09-23T03:15:25.625Z,8.28
2017-09-23T03:17:54.051Z,8.29
2017-09-23T03:20:22.523Z,8.31
2017-09-23T03:22:50.976Z,8.40
2017-09-23T03:25:19.404Z,8.38
2017-09-23T03:27:47.848Z,8.39
2017-09-23T03:30:16.321Z,8.37
2017-09-23T03:32:44.804Z,8.44
2017-09-23T03:35:13.239Z,8.43
2017-09-23T03:37:41.695Z,8.44
2017-09-23T03:40:10.127Z,8.35
2017-09-23T03:42:39.340Z,8.44
2017-09-23T03:45:07.773Z,8.46
2017-09-23T03:47:36.992Z,8.44
2017-09-23T03:50:06.188Z,8.45
2017-09-23T03:52:34.643Z,8.42
2017-09-23T03:55:03.071Z,8.39
2017-09-23T03:57:32.290Z,8.40
2017-09-23T04:00:00.768Z,8.40
2017-09-23T04:02:29.262Z,8.28
2017-09-23T04:04:57.691Z,8.27
2017-09-23T04:07:26.220Z,8.29
2017-09-23T04:09:54.652Z,8.34
2017-09-23T04:12:23.884Z,8.32
2017-09-23T04:14:52.783Z,8.38
2017-09-23T04:17:21.245Z,8.42
2017-09-23T04:19:50.439Z,8.44
2017-09-23T04:22:19.655Z,8.48
2017-09-23T04:24:48.083Z,8.53
2017-09-23T04:27:16.627Z,8.55
2017-09-23T04:29:45.117Z,8.59
2017-09-23T04:32:13.563Z,8.59
2017-09-23T04:34:42.754Z,8.59
2017-09-23T04:37:11.204Z,8.61
2017-09-23T04:39:39.627Z,8.63
2017-09-23T04:42:08.860Z,8.62
2017-09-23T04:44:37.336Z,8.67
2017-09-23T04:47:05.768Z,8.66
2017-09-23T04:49:34.221Z,8.59
2017-09-23T04:52:02.647Z,8.53
2017-09-23T04:54:31.859Z,8.53
2017-09-23T04:57:01.084Z,8.46
2017-09-23T04:59:29.563Z,8.44
2017-09-23T05:01:58.039Z,8.44
2017-09-23T05:04:26.483Z,8.50
2017-09-23T05:06:55.016Z,8.46
2017-09-23T05:09:23.500Z,8.48
2017-09-23T05:11:51.936Z,8.48
2017-09-23T05:14:21.168Z,8.50
2017-09-23T05:16:49.652Z,8.50
2017-09-23T05:19:18.139Z,8.51
2017-09-23T05:21:46.617Z,8.56
2017-09-23T05:24:15.070Z,8.53
2017-09-23T05:26:44.271Z,8.54
2017-09-23T05:29:13.595Z,8.55
2017-09-23T05:31:42.080Z,8.54
2017-09-23T05:34:10.566Z,8.50
2017-09-23T05:36:39.059Z,8.53
2017-09-23T05:39:07.508Z,8.56
2017-09-23T05:41:35.940Z,8.57
2017-09-23T05:44:04.386Z,8.62
2017-09-23T05:46:32.867Z,8.68
2017-09-23T05:49:01.352Z,8.73
2017-09-23T05:51:29.784Z,8.81
2017-09-23T05:53:59.031Z,8.77
2017-09-23T05:56:27.515Z,8.81
2017-09-23T05:58:55.944Z,8.79
2017-09-23T06:01:25.159Z,8.81
2017-09-23T06:03:54.391Z,8.85
2017-09-23T06:06:22.843Z,8.88
2017-09-23T06:08:52.039Z,8.97
2017-09-23T06:11:21.276Z,9.10
2017-09-23T06:13:49.708Z,9.05
2017-09-23T06:16:18.160Z,9.15
2017-09-23T06:18:46.592Z,9.17
2017-09-23T06:21:15.811Z,9.08
2017-09-23T06:23:44.314Z,9.13
2017-09-23T06:26:12.768Z,9.09
2017-09-23T06:28:41.202Z,9.15
2017-09-23T06:31:09.657Z,9.20
2017-09-23T06:33:38.783Z,9.22
2017-09-23T06:36:07.224Z,9.31
2017-09-23T06:38:35.704Z,9.37
2017-09-23T06:41:04.188Z,9.41
2017-09-23T06:43:32.627Z,9.48
2017-09-23T06:46:01.085Z,9.41
2017-09-23T06:48:29.511Z,9.40
2017-09-23T06:50:58.728Z,9.43
2017-09-23T06:53:27.196Z,9.48
2017-09-23T06:55:55.692Z,9.48
2017-09-23T06:58:24.172Z,9.47
2017-09-23T07:00:52.603Z,9.50
2017-09-23T07:03:21.059Z,9.55
2017-09-23T07:05:49.516Z,9.60
2017-09-23T07:08:17.965Z,9.62
2017-09-23T07:10:47.164Z,9.65
2017-09-23T07:13:16.387Z,9.67
2017-09-23T07:15:44.819Z,9.63
2017-09-23T07:18:13.268Z,9.62
2017-09-23T07:20:41.703Z,9.52
2017-09-23T07:23:10.151Z,9.72
2017-09-23T07:25:38.584Z,9.57
2017-09-23T07:28:07.903Z,9.87
2017-09-23T07:30:36.341Z,9.90
2017-09-23T07:33:06.296Z,9.99
2017-09-23T07:35:34.723Z,10.04
2017-09-23T07:38:03.180Z,10.09
2017-09-23T07:40:31.617Z,10.10
2017-09-23T07:43:00.859Z,10.16
2017-09-23T07:45:29.292Z,10.18
2017-09-23T07:47:58.542Z,10.25
2017-09-23T07:50:26.996Z,10.13
2017-09-23T07:52:55.428Z,10.22
2017-09-23T07:55:23.968Z,10.38
2017-09-23T07:57:52.401Z,10.25
2017-09-23T08:00:20.843Z,10.34
2017-09-23T08:02:49.288Z,10.39
2017-09-23T08:05:18.625Z,10.44
2017-09-23T08:07:47.063Z,10.62
2017-09-23T08:10:16.284Z,10.69
2017-09-23T08:12:44.716Z,10.64
2017-09-23T08:15:13.168Z,10.74
2017-09-23T08:17:41.647Z,10.78
2017-09-23T08:20:10.095Z,10.92
2017-09-23T08:22:39.319Z,10.92
2017-09-23T08:25:07.805Z,10.81
2017-09-23T08:27:36.240Z,10.82
2017-09-23T08:30:04.698Z,10.87
2017-09-23T08:32:33.157Z,10.97
2017-09-23T08:35:01.636Z,11.09
2017-09-23T08:37:30.111Z,11.12
2017-09-23T08:39:58.705Z,11.22
2017-09-23T08:42:27.148Z,11.16
2017-09-23T08:44:56.383Z,11.33
2017-09-23T08:47:24.822Z,11.40
2017-09-23T08:49:54.028Z,11.46
2017-09-23T08:52:23.261Z,11.53
2017-09-23T08:54:51.688Z,11.63
2017-09-23T08:57:20.152Z,11.70
2017-09-23T08:59:48.609Z,11.78
2017-09-23T09:02:17.088Z,11.86
2017-09-23T09:04:45.564Z,11.78
2017-09-23T09:07:14.047Z,11.81
2017-09-23T09:09:42.481Z,11.86
2017-09-23T09:12:11.012Z,11.97
2017-09-23T09:14:39.448Z,11.99
2017-09-23T09:17:07.898Z,12.07
2017-09-23T09:19:36.356Z,12.10
2017-09-23T09:22:04.817Z,12.22
2017-09-23T09:24:34.036Z,12.28
2017-09-23T09:27:02.484Z,12.39
2017-09-23T09:29:31.719Z,12.57
2017-09-23T09:32:00.176Z,12.68
2017-09-23T09:34:29.380Z,12.91
2017-09-23T09:36:58.694Z,13.06
2017-09-23T09:39:27.179Z,13.25
2017-09-23T09:41:55.603Z,13.57
2017-09-23T09:44:24.060Z,13.55
2017-09-23T09:46:52.499Z,13.79
2017-09-23T09:49:21.716Z,13.94
2017-09-23T09:51:50.143Z,13.88
2017-09-23T09:54:18.695Z,13.97
2017-09-23T09:56:47.127Z,14.04
2017-09-23T09:59:15.591Z,14.01
2017-09-23T10:01:44.135Z,14.05
2017-09-23T10:04:12.596Z,14.27
2017-09-23T10:06:41.795Z,14.34
2017-09-23T10:09:11.120Z,14.46
2017-09-23T10:11:39.564Z,14.61
2017-09-23T10:14:08.904Z,14.85
2017-09-23T10:16:37.345Z,14.88
2017-09-23T10:19:06.680Z,14.78
2017-09-23T10:21:35.107Z,14.93
2017-09-23T10:24:03.565Z,14.87
2017-09-23T10:26:31.999Z,15.00
2017-09-23T10:29:01.224Z,15.06
2017-09-23T10:31:29.656Z,15.21
2017-09-23T10:33:58.192Z,15.20
2017-09-23T10:36:26.631Z,15.39
2017-09-23T10:38:55.064Z,15.43
2017-09-23T10:41:23.640Z,15.51
2017-09-23T10:43:52.081Z,15.82
2017-09-23T10:46:22.025Z,16.21
2017-09-23T10:48:50.473Z,16.61
2017-09-23T10:51:18.928Z,16.05
2017-09-23T10:53:47.363Z,16.06
2017-09-23T10:56:15.820Z,16.08
2017-09-23T10:58:44.252Z,16.43
2017-09-23T11:01:12.707Z,16.28
2017-09-23T11:03:41.138Z,16.48
2017-09-23T11:06:09.588Z,16.13
2017-09-23T11:08:38.028Z,16.05
2017-09-23T11:11:07.252Z,16.07
2017-09-23T11:13:35.683Z,16.06
2017-09-23T11:16:04.228Z,16.21
2017-09-23T11:18:32.667Z,16.28
2017-09-23T11:21:01.128Z,16.26
2017-09-23T11:23:29.559Z,16.31
2017-09-23T11:25:58.052Z,16.32
2017-09-23T11:28:26.540Z,16.61
2017-09-23T11:30:55.016Z,16.76
2017-09-23T11:33:23.505Z,16.79
2017-09-23T11:35:51.988Z,16.88
2017-09-23T11:38:20.459Z,17.17
2017-09-23T11:40:48.950Z,17.00
2017-09-23T11:43:17.408Z,17.14
2017-09-23T11:45:46.612Z,17.20
2017-09-23T11:48:15.067Z,17.18
2017-09-23T11:50:43.502Z,16.89
2017-09-23T11:53:11.978Z,17.01
2017-09-23T11:55:40.455Z,17.09
2017-09-23T11:58:08.917Z,17.03
2017-09-23T12:00:37.347Z,17.28
2017-09-23T12:03:05.910Z,17.28
2017-09-23T12:05:34.380Z,17.07
2017-09-23T12:08:02.877Z,17.03
2017-09-23T12:10:31.348Z,16.68
2017-09-23T12:12:59.828Z,16.74
2017-09-23T12:15:28.307Z,16.76
2017-09-23T12:17:56.760Z,16.83
2017-09-23T12:20:25.960Z,16.82
2017-09-23T12:22:55.195Z,16.94
2017-09-23T12:25:23.668Z,17.02
2017-09-23T12:27:52.104Z,16.91
2017-09-23T12:30:20.632Z,17.05
2017-09-23T12:32:49.115Z,17.06
2017-09-23T12:35:17.595Z,16.90
2017-09-23T12:37:46.037Z,16.89
2017-09-23T12:40:14.499Z,16.82
2017-09-23T12:42:42.931Z,16.79
2017-09-23T12:45:11.423Z,16.77
2017-09-23T12:47:39.918Z,16.81
2017-09-23T12:50:08.375Z,16.80
2017-09-23T12:52:36.879Z,16.71
2017-09-23T12:55:05.356Z,16.78
2017-09-23T12:57:33.800Z,16.89
2017-09-23T13:00:03.542Z,17.12
2017-09-23T13:02:31.975Z,17.12
2017-09-23T13:05:00.504Z,17.08
2017-09-23T13:07:28.987Z,17.15
2017-09-23T13:09:57.472Z,16.94
2017-09-23T13:12:25.912Z,16.84
2017-09-23T13:14:54.363Z,17.13
2017-09-23T13:17:22.815Z,17.18
2017-09-23T13:19:51.284Z,17.18
2017-09-23T13:22:19.787Z,17.12
2017-09-23T13:24:48.224Z,16.89
2017-09-23T13:27:17.447Z,16.76
2017-09-23T13:29:45.883Z,16.61
2017-09-23T13:32:14.423Z,16.73
2017-09-23T13:34:42.868Z,16.94
2017-09-23T13:37:11.321Z,17.13
2017-09-23T13:39:39.772Z,17.26
2017-09-23T13:42:08.258Z,17.05
2017-09-23T13:44:36.695Z,17.02
2017-09-23T13:47:05.919Z,16.94
2017-09-23T13:49:34.364Z,16.74
2017-09-23T13:52:03.013Z,16.91
2017-09-23T13:54:31.443Z,16.65
2017-09-23T13:57:00.668Z,16.70
2017-09-23T13:59:29.159Z,16.57
2017-09-23T14:01:57.616Z,16.55
2017-09-23T14:04:26.849Z,16.61
2017-09-23T14:06:55.308Z,16.35
2017-09-23T14:09:23.912Z,16.48
2017-09-23T14:11:52.393Z,16.57
2017-09-23T14:14:20.847Z,16.56
2017-09-23T14:16:50.171Z,16.59
2017-09-23T14:19:18.612Z,16.63
2017-09-23T14:21:47.136Z,16.52
2017-09-23T14:24:15.615Z,16.46
2017-09-23T14:26:44.049Z,16.47
2017-09-23T14:29:12.503Z,16.44
2017-09-23T14:31:40.959Z,16.36
2017-09-23T14:34:09.412Z,16.26
2017-09-23T14:36:38.643Z,16.30
2017-09-23T14:39:07.096Z,16.27
2017-09-23T14:41:36.339Z,16.30
2017-09-23T14:44:04.808Z,16.29
2017-09-23T14:46:33.239Z,16.20
2017-09-23T14:49:02.508Z,16.18
2017-09-23T14:51:30.935Z,16.12
2017-09-23T14:54:00.267Z,16.03
2017-09-23T14:56:28.700Z,15.95
2017-09-23T14:58:57.160Z,15.93
2017-09-23T15:01:25.589Z,16.03
2017-09-23T15:03:54.911Z,16.04
2017-09-23T15:06:23.340Z,15.98
2017-09-23T15:08:51.880Z,15.93
2017-09-23T15:11:20.358Z,15.83
2017-09-23T15:13:48.836Z,15.92
2017-09-23T15:16:17.267Z,15.80
2017-09-23T15:18:45.713Z,15.87
2017-09-23T15:21:14.152Z,15.89
2017-09-23T15:23:43.397Z,15.92
2017-09-23T15:26:11.832Z,16.00
2017-09-23T15:28:41.036Z,15.96
2017-09-23T15:31:10.347Z,15.91
2017-09-23T15:33:39.582Z,15.77
2017-09-23T15:36:08.029Z,15.70
2017-09-23T15:38:37.224Z,15.68
2017-09-23T15:41:06.441Z,15.68
2017-09-23T15:43:34.863Z,15.74
2017-09-23T15:46:03.312Z,15.69
2017-09-23T15:48:31.745Z,15.75
2017-09-23T15:51:00.188Z,15.75
2017-09-23T15:53:28.651Z,15.74
2017-09-23T15:55:57.100Z,15.67
2017-09-23T15:58:26.327Z,15.72
2017-09-23T16:00:54.815Z,15.72
2017-09-23T16:03:23.239Z,15.72
2017-09-23T16:05:51.690Z,15.74
2017-09-23T16:08:20.118Z,15.61
2017-09-23T16:10:48.635Z,15.56
2017-09-23T16:13:17.077Z,15.55
2017-09-23T16:15:45.527Z,15.52
2017-09-23T16:18:13.987Z,15.44
2017-09-23T16:20:42.457Z,15.36
2017-09-23T16:23:10.943Z,15.33
2017-09-23T16:25:39.432Z,15.34
2017-09-23T16:28:07.882Z,15.39
2017-09-23T16:30:37.076Z,15.28
2017-09-23T16:33:06.411Z,15.18
2017-09-23T16:35:34.892Z,15.16
2017-09-23T16:38:03.376Z,15.12
2017-09-23T16:40:31.804Z,15.15
2017-09-23T16:43:00.354Z,15.04
2017-09-23T16:45:28.820Z,14.99
2017-09-23T16:47:57.267Z,14.98
2017-09-23T16:50:26.504Z,15.03
2017-09-23T16:52:54.983Z,14.99
2017-09-23T16:55:23.464Z,15.00
2017-09-23T16:57:51.948Z,14.96
2017-09-23T17:00:20.376Z,14.95
2017-09-23T17:02:48.827Z,14.96
2017-09-23T17:05:17.298Z,15.01
2017-09-23T17:07:45.782Z,14.97
2017-09-23T17:10:14.215Z,14.93
2017-09-23T17:12:42.754Z,14.88
2017-09-23T17:15:11.184Z,14.90
2017-09-23T17:17:40.416Z,14.81
2017-09-23T17:20:08.903Z,14.81
2017-09-23T17:22:37.342Z,14.78
2017-09-23T17:25:06.544Z,14.76
2017-09-23T17:27:35.763Z,14.78
2017-09-23T17:30:04.968Z,14.75
2017-09-23T17:32:33.416Z,14.69
2017-09-23T17:35:01.945Z,14.69
2017-09-23T17:37:30.416Z,14.69
2017-09-23T17:39:59.116Z,14.69
2017-09-23T17:42:27.592Z,14.93
2017-09-23T17:44:56.039Z,14.73
2017-09-23T17:47:24.478Z,14.71
2017-09-23T17:49:53.040Z,14.75
2017-09-23T17:52:21.516Z,14.74
2017-09-23T17:54:49.972Z,14.78
2017-09-23T17:57:19.167Z,14.70
2017-09-23T17:59:48.404Z,14.75
2017-09-23T18:02:16.827Z,14.62
2017-09-23T18:04:45.364Z,14.67
2017-09-23T18:07:13.848Z,14.60
2017-09-23T18:09:42.328Z,14.59
2017-09-23T18:12:10.816Z,14.64
2017-09-23T18:14:39.264Z,14.61
2017-09-23T18:17:08.464Z,14.62
2017-09-23T18:19:37.800Z,14.65
2017-09-23T18:22:06.227Z,14.57
2017-09-23T18:24:34.684Z,14.63
2017-09-23T18:27:03.111Z,14.47
2017-09-23T18:29:32.339Z,14.48
2017-09-23T18:32:00.763Z,14.45
2017-09-23T18:34:29.304Z,14.37
2017-09-23T18:36:57.788Z,14.30
2017-09-23T18:39:26.215Z,14.31
2017-09-23T18:41:54.663Z,14.22
2017-09-23T18:44:23.131Z,14.15
2017-09-23T18:46:51.611Z,14.17
2017-09-23T18:49:20.040Z,14.19
2017-09-23T18:51:48.576Z,14.11
2017-09-23T18:54:17.051Z,14.07
2017-09-23T18:56:45.545Z,14.15
2017-09-23T18:59:14.014Z,14.19
2017-09-23T19:01:42.463Z,14.19
2017-09-23T19:04:10.979Z,14.22
2017-09-23T19:06:39.438Z,14.27
2017-09-23T19:09:08.636Z,14.34
2017-09-23T19:11:37.852Z,14.32
2017-09-23T19:14:06.279Z,14.26
2017-09-23T19:16:34.828Z,14.21
2017-09-23T19:19:03.259Z,14.10
2017-09-23T19:21:31.791Z,14.19
2017-09-23T19:24:00.220Z,14.17
2017-09-23T19:26:28.681Z,14.29
2017-09-23T19:28:57.108Z,14.22
2017-09-23T19:31:26.323Z,14.17
2017-09-23T19:33:54.761Z,14.33
2017-09-23T19:36:23.299Z,14.29
2017-09-23T19:38:51.729Z,14.43
2017-09-23T19:41:20.191Z,14.52
2017-09-23T19:43:48.645Z,14.44
2017-09-23T19:46:17.124Z,14.43
2017-09-23T19:48:45.564Z,14.60
2017-09-23T19:51:14.087Z,14.48
2017-09-23T19:53:43.215Z,14.84
2017-09-23T19:56:11.688Z,14.63
2017-09-23T19:58:40.125Z,14.54
2017-09-23T20:01:09.348Z,14.49
2017-09-23T20:03:37.832Z,14.69
2017-09-23T20:06:06.317Z,14.64
2017-09-23T20:08:34.772Z,14.59
2017-09-23T20:11:03.971Z,14.53
2017-09-23T20:13:33.291Z,14.41
2017-09-23T20:16:01.771Z,14.39
2017-09-23T20:18:37.351Z,14.37
2017-09-23T20:21:14.645Z,14.38
2017-09-23T20:23:43.693Z,14.39
2017-09-23T20:26:12.127Z,14.33
2017-09-23T20:28:40.581Z,14.35
2017-09-23T20:31:09.047Z,14.35
2017-09-23T20:33:37.484Z,14.30
2017-09-23T20:36:05.918Z,14.32
2017-09-23T20:38:34.400Z,14.31
2017-09-23T20:41:02.832Z,14.27
2017-09-23T20:43:31.296Z,14.26
2017-09-23T20:45:59.724Z,14.26
2017-09-23T20:48:28.176Z,14.25
2017-09-23T20:50:56.611Z,14.27
2017-09-23T20:53:25.093Z,14.26
2017-09-23T20:55:53.857Z,14.22
2017-09-23T20:58:22.292Z,14.24
2017-09-23T21:00:51.054Z,14.22
2017-09-23T21:03:19.619Z,14.24
2017-09-23T21:05:48.072Z,14.24
2017-09-23T21:08:17.268Z,14.16
2017-09-23T21:10:46.492Z,14.15
2017-09-23T21:13:14.921Z,14.25
2017-09-23T21:15:43.463Z,14.28
2017-09-23T21:18:11.891Z,14.26
2017-09-23T21:20:40.340Z,14.28
2017-09-23T21:23:08.817Z,14.28
2017-09-23T21:25:37.276Z,14.22
2017-09-23T21:28:05.772Z,14.22
2017-09-23T21:30:34.213Z,14.23
2017-09-23T21:33:02.736Z,14.25
2017-09-23T21:35:31.196Z,14.28
2017-09-23T21:38:00.400Z,14.24
2017-09-23T21:40:29.615Z,14.26
2017-09-23T21:42:58.044Z,14.25
2017-09-23T21:45:26.666Z,14.32
2017-09-23T21:47:55.869Z,14.29
2017-09-23T21:50:24.368Z,14.27
2017-09-23T21:52:52.846Z,14.21
2017-09-23T21:55:21.316Z,14.16
2017-09-23T21:57:50.428Z,14.16
2017-09-23T22:00:18.896Z,14.16
2017-09-23T22:02:47.387Z,14.15
2017-09-23T22:05:15.815Z,14.45
2017-09-23T22:07:44.267Z,14.36
2017-09-23T22:10:12.724Z,14.25
2017-09-23T22:12:41.184Z,14.16
2017-09-23T22:15:10.416Z,14.14
2017-09-23T22:17:38.872Z,14.14
2017-09-23T22:20:08.067Z,14.12
2017-09-23T22:22:37.280Z,14.11
2017-09-23T22:25:05.772Z,14.16
2017-09-23T22:27:34.220Z,14.12
2017-09-23T22:30:03.419Z,14.15
2017-09-23T22:32:32.645Z,14.18
2017-09-23T22:35:01.079Z,14.11
2017-09-23T22:37:29.529Z,14.14
2017-09-23T22:39:57.995Z,14.12
2017-09-23T22:42:26.452Z,14.15
2017-09-23T22:44:55.651Z,14.14
2017-09-23T22:47:24.863Z,14.14
2017-09-23T22:49:53.360Z,14.11
2017-09-23T22:52:21.816Z,14.07
2017-09-23T22:54:51.036Z,14.10
2017-09-23T22:57:19.492Z,14.13
2017-09-23T22:59:48.688Z,14.09
2017-09-23T23:02:17.907Z,14.07
2017-09-23T23:04:46.335Z,14.06
2017-09-23T23:07:14.897Z,14.13
2017-09-23T23:09:43.327Z,14.10
2017-09-23T23:12:11.785Z,14.12
2017-09-23T23:14:40.220Z,14.10
2017-09-23T23:17:08.711Z,14.13
2017-09-23T23:19:37.144Z,14.15
2017-09-23T23:22:05.676Z,14.15
2017-09-23T23:24:34.119Z,14.17
2017-09-23T23:27:03.351Z,14.23
2017-09-23T23:29:31.836Z,14.19
2017-09-23T23:32:00.314Z,14.17
2017-09-23T23:34:28.768Z,14.22
2017-09-23T23:36:57.963Z,14.22
2017-09-23T23:39:27.196Z,14.21
2017-09-23T23:41:55.624Z,14.28
2017-09-23T23:44:25.584Z,14.25
2017-09-23T23:46:54.016Z,14.29
2017-09-23T23:49:22.472Z,14.30
2017-09-23T23:51:50.908Z,14.27
2017-09-23T23:54:20.138Z,14.20
2017-09-23T23:56:48.571Z,14.28
2017-09-23T23:59:17.029Z,14.20
